createdAt,value
2023-04-01T07:26:58.944Z,27.10
2023-04-01T07:29:30.486Z,33.00
2023-04-01T07:32:23.982Z,20.60
2023-04-01T07:35:14.575Z,50.90
2023-04-01T07:38:17.092Z,43.10
2023-04-01T07:43:33.179Z,19.40
2023-04-01T07:46:32.749Z,32.50
2023-04-01T07:49:13.960Z,33.90
2023-04-01T07:52:10.832Z,60.70
2023-04-01T07:54:57.288Z,49.40
2023-04-01T07:57:42.689Z,25.50
2023-04-01T08:00:24.294Z,83.90
2023-04-01T08:03:16.721Z,51.00
2023-04-01T08:06:08.878Z,33.30
2023-04-01T08:08:41.844Z,29.80
2023-04-01T08:12:31.525Z,50.10
2023-04-01T08:15:22.516Z,55.30
2023-04-01T08:18:27.972Z,14.30
2023-04-01T08:21:47.537Z,30.80
2023-04-01T08:24:34.341Z,43.70
2023-04-01T08:28:16.532Z,31.50
2023-04-01T08:30:59.414Z,23.20
2023-04-01T08:33:48.139Z,14.70
2023-04-01T08:36:20.686Z,72.90
2023-04-01T08:39:01.311Z,54.20
2023-04-01T08:41:43.095Z,381.80
2023-04-01T08:45:07.054Z,92.10
2023-04-01T08:48:10.212Z,133.00
2023-04-01T08:50:44.377Z,129.80
2023-04-01T08:54:21.681Z,189.20
2023-04-01T08:57:00.149Z,182.20
2023-04-01T08:59:51.518Z,179.30
2023-04-01T09:03:24.916Z,634.70
2023-04-01T09:06:12.092Z,563.30
2023-04-01T09:08:46.608Z,791.10
2023-04-01T09:11:43.338Z,208.70
2023-04-01T09:14:43.971Z,171.20
2023-04-01T09:17:46.369Z,290.60
2023-04-01T09:20:37.230Z,37.30
2023-04-01T09:23:24.911Z,228.00
2023-04-01T09:26:15.279Z,114.30
2023-04-01T09:29:23.481Z,204.20
2023-04-01T09:32:14.593Z,18.80
2023-04-01T09:35:08.725Z,16.40
2023-04-01T09:37:51.361Z,117.30
2023-04-01T09:40:53.655Z,41.50
2023-04-01T09:43:57.851Z,33.20
2023-04-01T09:46:45.830Z,75.60
2023-04-01T09:49:53.986Z,30.80
2023-04-01T09:52:55.257Z,15.30
2023-04-01T09:55:59.765Z,17.80
2023-04-01T09:58:57.752Z,12.70
2023-04-01T10:02:03.550Z,51.00
2023-04-01T10:05:14.158Z,14.00
2023-04-01T10:07:59.262Z,15.90
2023-04-01T10:11:13.730Z,14.30
2023-04-01T10:14:14.158Z,15.10
2023-04-01T10:17:08.093Z,28.30
2023-04-01T10:20:15.024Z,16.80
2023-04-01T10:22:55.827Z,16.40
2023-04-01T10:25:44.049Z,27.50
2023-04-01T10:28:27.829Z,228.30
2023-04-01T10:32:22.105Z,104.00
2023-04-01T10:38:11.966Z,461.60
2023-04-01T10:40:43.838Z,162.60
2023-04-01T10:43:56.490Z,274.20
2023-04-01T10:47:04.998Z,486.20
2023-04-01T10:49:55.602Z,131.70
2023-04-01T10:52:54.926Z,45.90
2023-04-01T10:56:21.787Z,19.40
2023-04-01T10:59:55.597Z,56.90
2023-04-01T11:03:22.360Z,105.00
2023-04-01T11:06:51.097Z,42.90
2023-04-01T11:10:04.793Z,72.60
2023-04-01T11:12:56.852Z,19.30
2023-04-01T11:15:42.329Z,69.10
2023-04-01T11:18:51.791Z,81.70
2023-04-01T11:21:26.545Z,93.90
2023-04-01T11:25:13.584Z,68.30
2023-04-01T11:33:12.359Z,113.40
2023-04-01T11:35:56.619Z,179.00
2023-04-01T11:38:45.225Z,45.40
2023-04-01T11:42:03.551Z,36.20
2023-04-01T11:46:10.596Z,115.40
2023-04-01T11:49:31.555Z,21.30
2023-04-01T11:52:46.174Z,47.90
2023-04-01T11:58:16.015Z,71.00
2023-04-01T12:01:07.105Z,126.50
2023-04-01T12:08:26.083Z,62.60
2023-04-01T12:11:44.684Z,58.50
2023-04-01T12:15:27.793Z,24.20
2023-04-01T12:18:05.054Z,26.70
2023-04-01T12:21:14.905Z,26.10
2023-04-01T12:24:38.214Z,25.80
2023-04-01T12:31:38.358Z,29.10
2023-04-01T12:34:44.050Z,31.40
2023-04-01T12:38:01.322Z,39.80
2023-04-01T12:41:08.492Z,23.80
2023-04-01T12:43:42.598Z,22.40
2023-04-01T12:46:46.440Z,30.20
2023-04-01T12:49:17.853Z,19.10
2023-04-01T12:51:46.291Z,17.70
2023-04-01T12:54:42.946Z,19.90
2023-04-01T12:57:26.445Z,16.50
2023-04-01T13:05:02.923Z,15.60
2023-04-01T13:07:37.629Z,15.80
2023-04-01T13:14:45.038Z,17.60
2023-04-01T13:27:31.897Z,122.80
2023-04-01T13:34:54.961Z,30.30
2023-04-01T13:38:01.237Z,29.50
2023-04-01T13:40:46.853Z,39.80
2023-04-01T13:43:30.878Z,29.80
2023-04-01T13:46:02.398Z,32.90
2023-04-01T13:48:50.389Z,29.00
2023-04-01T13:51:53.470Z,59.10
2023-04-01T13:54:52.494Z,19.90
2023-04-01T13:57:39.950Z,52.50
2023-04-01T14:00:27.624Z,36.70
2023-04-01T14:03:09.225Z,79.40
2023-04-01T14:05:53.043Z,76.00
2023-04-01T14:08:56.842Z,88.90
2023-04-01T14:11:43.626Z,22.90
2023-04-01T14:14:50.457Z,23.80
2023-04-01T14:17:32.209Z,144.90
2023-04-01T14:20:27.549Z,111.60
2023-04-01T14:23:33.185Z,75.00
2023-04-01T14:26:01.618Z,21.60
2023-04-01T14:28:58.363Z,15.40
2023-04-01T14:32:02.397Z,157.30
2023-04-01T14:35:01.452Z,29.60
2023-04-01T14:37:48.979Z,53.50
2023-04-01T14:40:57.423Z,17.20
2023-04-01T14:44:00.126Z,24.90
2023-04-01T14:46:49.200Z,16.60
2023-04-01T14:49:32.303Z,14.50
2023-04-01T14:52:22.573Z,12.00
2023-04-01T14:54:53.320Z,14.40
2023-04-01T14:57:33.636Z,9.90
2023-04-01T15:00:05.071Z,10.80
2023-04-01T15:02:48.298Z,9.20
2023-04-01T15:05:36.522Z,8.10
2023-04-01T15:08:14.748Z,19.70
2023-04-01T15:11:19.961Z,44.20
2023-04-01T15:14:15.105Z,12.40
2023-04-01T15:17:03.340Z,11.70
2023-04-01T15:19:57.379Z,13.70
2023-04-01T15:22:34.958Z,9.90
2023-04-01T15:25:38.637Z,11.50
2023-04-01T15:28:32.897Z,14.10
2023-04-01T15:31:28.367Z,12.80
2023-04-01T15:34:19.094Z,12.40
2023-04-01T15:36:57.391Z,8.10
2023-04-01T15:39:33.622Z,9.40
2023-04-01T15:42:26.853Z,9.70
2023-04-01T15:45:09.135Z,9.20
2023-04-01T15:47:37.631Z,8.70
2023-04-01T15:50:40.325Z,8.10
2023-04-01T15:53:29.439Z,9.80
2023-04-01T15:56:08.933Z,8.30
2023-04-01T15:58:57.378Z,10.00
2023-04-01T16:02:09.483Z,7.70
2023-04-01T16:04:41.491Z,8.30
2023-04-01T16:07:41.754Z,7.80
2023-04-01T16:10:48.172Z,12.00
2023-04-01T16:13:39.286Z,8.00
2023-04-01T16:16:20.094Z,7.60
2023-04-01T16:19:12.152Z,7.40
2023-04-01T16:21:53.309Z,11.10
2023-04-01T16:24:42.815Z,6.00
2023-04-01T16:27:24.210Z,9.60
2023-04-01T16:30:03.392Z,6.20
2023-04-01T16:32:48.498Z,6.20
2023-04-01T16:35:41.988Z,8.10
2023-04-01T16:38:42.206Z,9.70
2023-04-01T16:41:38.712Z,9.90
2023-04-01T16:44:28.581Z,7.70
2023-04-01T16:47:06.756Z,8.30
2023-04-01T16:49:41.460Z,8.60
2023-04-01T16:52:10.985Z,8.50
2023-04-01T16:54:58.788Z,5.80
2023-04-01T16:57:38.218Z,6.80
2023-04-01T17:00:42.017Z,6.90
2023-04-01T17:03:22.975Z,8.20
2023-04-01T17:06:12.503Z,5.80
2023-04-01T17:09:02.831Z,7.10
2023-04-01T17:11:43.915Z,9.90
2023-04-01T17:14:30.010Z,5.10
2023-04-01T17:17:21.028Z,8.60
2023-04-01T17:20:36.585Z,15.80
2023-04-01T17:23:14.832Z,31.80
2023-04-01T17:26:32.447Z,20.50
2023-04-01T17:29:14.054Z,13.60
2023-04-01T17:32:20.476Z,78.70
2023-04-01T17:35:34.500Z,35.20
2023-04-01T17:38:15.661Z,32.00
2023-04-01T17:40:58.144Z,79.90
2023-04-01T17:43:50.478Z,27.30
2023-04-01T17:46:42.719Z,82.40
2023-04-01T17:49:34.986Z,21.30
2023-04-01T17:52:21.824Z,45.30
2023-04-01T17:54:55.523Z,87.00
2023-04-01T18:00:27.258Z,53.50
2023-04-01T18:05:40.133Z,102.50
2023-04-01T18:08:34.020Z,31.70
2023-04-01T18:11:14.552Z,223.70
2023-04-01T18:14:10.333Z,19.60
2023-04-01T18:16:58.627Z,40.40
2023-04-01T18:19:39.785Z,15.50
2023-04-01T18:22:24.159Z,31.40
2023-04-01T18:25:23.552Z,33.70
2023-04-01T18:28:01.360Z,35.20
2023-04-01T18:30:32.990Z,55.60
2023-04-01T18:33:18.057Z,52.90
2023-04-01T18:36:21.777Z,35.70
2023-04-01T18:39:12.751Z,14.60
2023-04-01T18:42:09.573Z,26.60
2023-04-01T18:44:49.687Z,12.20
2023-04-01T18:47:45.078Z,40.20
2023-04-01T18:50:49.055Z,13.40
2023-04-01T18:53:27.709Z,39.30
2023-04-01T18:56:04.016Z,32.10
2023-04-01T18:58:46.793Z,12.30
2023-04-01T19:01:41.608Z,16.70
2023-04-01T19:04:40.591Z,12.80
2023-04-01T19:07:50.785Z,19.20
2023-04-01T19:10:48.401Z,25.50
2023-04-01T19:13:40.467Z,9.30
2023-04-01T19:16:37.152Z,47.20
2023-04-01T19:19:36.278Z,30.90
2023-04-01T19:22:42.495Z,7.90
2023-04-01T19:25:14.320Z,12.30
2023-04-01T19:27:54.675Z,18.60
2023-04-01T19:30:48.763Z,40.00
2023-04-01T19:33:39.187Z,42.40
2023-04-01T19:36:20.004Z,16.60
2023-04-01T19:38:51.972Z,20.00
2023-04-01T19:41:36.530Z,23.90
2023-04-01T19:44:20.286Z,7.50
2023-04-01T19:47:21.778Z,8.50
2023-04-01T19:50:29.937Z,7.30
2023-04-01T19:53:07.424Z,10.10
2023-04-01T19:55:46.286Z,9.00
2023-04-01T19:58:41.274Z,16.20
2023-04-01T20:01:18.795Z,9.80
2023-04-01T20:03:57.554Z,9.70
2023-04-01T20:06:47.850Z,7.70
2023-04-01T20:09:51.476Z,6.90
2023-04-01T20:12:46.497Z,4.40
2023-04-01T20:15:34.410Z,5.00
2023-04-01T20:18:16.334Z,5.80
2023-04-01T20:21:00.972Z,4.60
2023-04-01T20:23:44.473Z,5.10
2023-04-01T20:26:15.571Z,3.70
2023-04-01T20:29:14.402Z,3.40
2023-04-01T20:31:46.745Z,3.60
2023-04-01T20:34:27.947Z,2.50
2023-04-01T20:37:02.751Z,2.90
2023-04-01T20:40:16.020Z,2.60
2023-04-01T20:43:20.664Z,2.60
2023-04-01T20:45:59.195Z,2.00
2023-04-01T20:49:01.911Z,2.00
2023-04-01T20:51:35.981Z,2.90
2023-04-01T20:54:13.239Z,3.10
2023-04-01T20:56:58.749Z,3.50
2023-04-01T20:59:40.729Z,2.40
2023-04-01T21:02:30.868Z,2.70
2023-04-01T21:05:19.399Z,2.70
2023-04-01T21:08:04.963Z,3.80
2023-04-01T21:10:44.929Z,1.80
2023-04-01T21:13:43.409Z,2.90
2023-04-01T21:16:28.289Z,2.40
2023-04-01T21:18:59.829Z,3.20
2023-04-01T21:21:57.767Z,2.50
2023-04-01T21:24:45.788Z,3.40
2023-04-01T21:27:54.144Z,3.30
2023-04-01T21:31:11.452Z,2.60
2023-04-01T21:34:00.454Z,3.00
2023-04-01T21:37:02.045Z,3.30
2023-04-01T21:39:58.633Z,3.40
2023-04-01T21:42:46.118Z,2.90
2023-04-01T21:45:52.037Z,3.00
2023-04-01T21:48:51.441Z,3.10
2023-04-01T21:51:57.593Z,3.30
2023-04-01T21:54:55.196Z,2.80
2023-04-01T21:57:46.345Z,3.90
2023-04-01T22:00:33.942Z,3.20
2023-04-01T22:03:23.998Z,3.00
2023-04-01T22:06:04.602Z,2.90
2023-04-01T22:08:53.711Z,2.90
2023-04-01T22:11:39.814Z,3.00
2023-04-01T22:14:19.150Z,3.30
2023-04-01T22:17:05.007Z,3.30
2023-04-01T22:19:58.313Z,2.80
2023-04-01T22:22:50.454Z,3.50
2023-04-01T22:25:41.845Z,3.50
2023-04-01T22:28:30.811Z,3.00
2023-04-01T22:31:04.400Z,3.40
2023-04-01T22:33:57.876Z,3.50
2023-04-01T22:36:50.085Z,3.00
2023-04-01T22:40:09.970Z,4.00
2023-04-01T22:43:23.035Z,2.70
2023-04-01T22:46:25.214Z,3.20
2023-04-01T22:49:29.154Z,3.20
2023-04-01T22:52:14.254Z,3.00
2023-04-01T22:55:00.034Z,2.60
2023-04-01T22:57:31.950Z,2.60
2023-04-01T23:00:22.366Z,2.50
2023-04-01T23:03:13.800Z,2.40
2023-04-01T23:05:53.142Z,2.90
2023-04-01T23:08:43.158Z,2.50
2023-04-01T23:11:20.070Z,2.20
2023-04-01T23:14:06.661Z,3.00
2023-04-01T23:16:49.231Z,2.40
2023-04-01T23:20:16.880Z,2.00
2023-04-01T23:23:09.513Z,1.60
2023-04-01T23:26:11.422Z,2.10
2023-04-01T23:28:54.884Z,2.40
2023-04-01T23:31:46.895Z,1.60
2023-04-01T23:34:36.573Z,1.70
2023-04-01T23:37:17.181Z,2.10
2023-04-01T23:39:54.077Z,1.80
2023-04-01T23:42:33.242Z,2.40
2023-04-01T23:45:14.582Z,2.50
2023-04-01T23:47:45.114Z,3.10
2023-04-01T23:50:22.567Z,3.20
2023-04-01T23:53:01.966Z,3.10
2023-04-01T23:55:35.873Z,2.00
2023-04-01T23:58:09.301Z,2.20
